sensor_id;sensor_type;location;lat;lon;timestamp;P1;durP1;ratioP1;P2;durP2;ratioP2
33593;SDS011;19920;52.242;20.940;2023-11-21T00:02:19;25.42;;;15.30;;
33593;SDS011;19920;52.242;20.940;2023-11-21T00:04:45;23.75;;;15.27;;
33593;SDS011;19920;52.242;20.940;2023-11-21T00:07:12;25.58;;;14.80;;
33593;SDS011;19920;52.242;20.940;2023-11-21T00:09:37;25.45;;;15.05;;
33593;SDS011;19920;52.242;20.940;2023-11-21T00:12:03;22.83;;;14.23;;
33593;SDS011;19920;52.242;20.940;2023-11-21T00:14:29;24.90;;;14.35;;
33593;SDS011;19920;52.242;20.940;2023-11-21T00:16:55;26.63;;;14.70;;
33593;SDS011;19920;52.242;20.940;2023-11-21T00:19:20;22.95;;;13.77;;
33593;SDS011;19920;52.242;20.940;2023-11-21T00:21:46;25.90;;;14.48;;
33593;SDS011;19920;52.242;20.940;2023-11-21T00:24:11;24.52;;;14.93;;
33593;SDS011;19920;52.242;20.940;2023-11-21T00:26:39;24.85;;;14.50;;
33593;SDS011;19920;52.242;20.940;2023-11-21T00:29:05;24.05;;;14.27;;
33593;SDS011;19920;52.242;20.940;2023-11-21T00:31:33;26.30;;;14.85;;
33593;SDS011;19920;52.242;20.940;2023-11-21T00:34:02;24.17;;;14.77;;
33593;SDS011;19920;52.242;20.940;2023-11-21T00:36:31;26.05;;;14.65;;
33593;SDS011;19920;52.242;20.940;2023-11-21T00:38:57;24.05;;;14.35;;
33593;SDS011;19920;52.242;20.940;2023-11-21T00:41:24;26.00;;;14.85;;
33593;SDS011;19920;52.242;20.940;2023-11-21T00:43:52;26.60;;;15.52;;
33593;SDS011;19920;52.242;20.940;2023-11-21T00:46:18;26.92;;;15.35;;
33593;SDS011;19920;52.242;20.940;2023-11-21T00:48:44;24.67;;;14.65;;
33593;SDS011;19920;52.242;20.940;2023-11-21T00:51:10;24.23;;;15.13;;
33593;SDS011;19920;52.242;20.940;2023-11-21T00:53:35;25.48;;;14.90;;
33593;SDS011;19920;52.242;20.940;2023-11-21T00:56:01;30.73;;;16.05;;
33593;SDS011;19920;52.242;20.940;2023-11-21T00:58:27;29.08;;;16.17;;
33593;SDS011;19920;52.242;20.940;2023-11-21T01:00:53;27.42;;;15.52;;
33593;SDS011;19920;52.242;20.940;2023-11-21T01:03:19;27.48;;;15.77;;
33593;SDS011;19920;52.242;20.940;2023-11-21T01:05:44;23.10;;;14.93;;
33593;SDS011;19920;52.242;20.940;2023-11-21T01:08:11;25.50;;;15.73;;
33593;SDS011;19920;52.242;20.940;2023-11-21T01:10:36;27.30;;;16.17;;
33593;SDS011;19920;52.242;20.940;2023-11-21T01:13:02;29.95;;;16.92;;
33593;SDS011;19920;52.242;20.940;2023-11-21T01:15:32;27.50;;;16.95;;
33593;SDS011;19920;52.242;20.940;2023-11-21T01:17:58;29.25;;;15.85;;
33593;SDS011;19920;52.242;20.940;2023-11-21T01:20:23;27.55;;;16.95;;
33593;SDS011;19920;52.242;20.940;2023-11-21T01:22:49;26.98;;;16.45;;
33593;SDS011;19920;52.242;20.940;2023-11-21T01:25:15;26.13;;;15.52;;
33593;SDS011;19920;52.242;20.940;2023-11-21T01:27:41;26.60;;;16.85;;
33593;SDS011;19920;52.242;20.940;2023-11-21T01:30:07;26.05;;;15.90;;
33593;SDS011;19920;52.242;20.940;2023-11-21T01:32:35;25.15;;;16.17;;
33593;SDS011;19920;52.242;20.940;2023-11-21T01:35:01;26.52;;;16.08;;
33593;SDS011;19920;52.242;20.940;2023-11-21T01:37:27;26.45;;;16.48;;
33593;SDS011;19920;52.242;20.940;2023-11-21T01:39:53;27.58;;;16.75;;
33593;SDS011;19920;52.242;20.940;2023-11-21T01:42:20;27.00;;;17.13;;
33593;SDS011;19920;52.242;20.940;2023-11-21T01:44:46;23.88;;;15.43;;
33593;SDS011;19920;52.242;20.940;2023-11-21T01:47:11;23.77;;;16.27;;
33593;SDS011;19920;52.242;20.940;2023-11-21T01:49:38;26.92;;;16.88;;
33593;SDS011;19920;52.242;20.940;2023-11-21T01:52:04;27.60;;;17.15;;
33593;SDS011;19920;52.242;20.940;2023-11-21T01:54:30;26.75;;;16.90;;
33593;SDS011;19920;52.242;20.940;2023-11-21T01:56:57;27.13;;;17.15;;
33593;SDS011;19920;52.242;20.940;2023-11-21T01:59:28;27.05;;;16.40;;
33593;SDS011;19920;52.242;20.940;2023-11-21T02:02:07;25.35;;;16.15;;
33593;SDS011;19920;52.242;20.940;2023-11-21T02:04:33;24.67;;;15.43;;
33593;SDS011;19920;52.242;20.940;2023-11-21T02:06:59;30.10;;;16.65;;
33593;SDS011;19920;52.242;20.940;2023-11-21T02:09:26;24.17;;;15.32;;
33593;SDS011;19920;52.242;20.940;2023-11-21T02:11:52;25.05;;;16.27;;
33593;SDS011;19920;52.242;20.940;2023-11-21T02:14:23;27.42;;;16.23;;
33593;SDS011;19920;52.242;20.940;2023-11-21T02:16:50;28.80;;;16.95;;
33593;SDS011;19920;52.242;20.940;2023-11-21T02:19:18;26.33;;;15.48;;
33593;SDS011;19920;52.242;20.940;2023-11-21T02:21:54;22.92;;;15.40;;
33593;SDS011;19920;52.242;20.940;2023-11-21T02:24:25;24.15;;;15.32;;
33593;SDS011;19920;52.242;20.940;2023-11-21T02:26:52;25.52;;;15.35;;
33593;SDS011;19920;52.242;20.940;2023-11-21T02:29:18;23.25;;;14.70;;
33593;SDS011;19920;52.242;20.940;2023-11-21T02:31:47;25.80;;;15.27;;
33593;SDS011;19920;52.242;20.940;2023-11-21T02:34:17;23.50;;;15.43;;
33593;SDS011;19920;52.242;20.940;2023-11-21T02:36:44;22.83;;;14.98;;
33593;SDS011;19920;52.242;20.940;2023-11-21T02:39:09;23.52;;;14.60;;
33593;SDS011;19920;52.242;20.940;2023-11-21T02:41:39;26.42;;;14.90;;
33593;SDS011;19920;52.242;20.940;2023-11-21T02:44:05;23.80;;;15.07;;
33593;SDS011;19920;52.242;20.940;2023-11-21T02:46:32;25.15;;;14.52;;
33593;SDS011;19920;52.242;20.940;2023-11-21T02:48:59;22.13;;;14.13;;
33593;SDS011;19920;52.242;20.940;2023-11-21T02:51:28;25.35;;;14.43;;
33593;SDS011;19920;52.242;20.940;2023-11-21T02:53:55;22.92;;;13.75;;
33593;SDS011;19920;52.242;20.940;2023-11-21T02:56:24;25.27;;;15.03;;
33593;SDS011;19920;52.242;20.940;2023-11-21T02:58:51;24.27;;;15.52;;
33593;SDS011;19920;52.242;20.940;2023-11-21T03:01:16;23.13;;;14.43;;
33593;SDS011;19920;52.242;20.940;2023-11-21T03:03:42;25.23;;;14.57;;
33593;SDS011;19920;52.242;20.940;2023-11-21T03:06:07;23.70;;;14.25;;
33593;SDS011;19920;52.242;20.940;2023-11-21T03:08:33;23.40;;;14.55;;
33593;SDS011;19920;52.242;20.940;2023-11-21T03:10:59;24.25;;;14.73;;
33593;SDS011;19920;52.242;20.940;2023-11-21T03:13:25;24.50;;;14.82;;
33593;SDS011;19920;52.242;20.940;2023-11-21T03:15:50;23.92;;;14.95;;
33593;SDS011;19920;52.242;20.940;2023-11-21T03:18:16;25.38;;;15.45;;
33593;SDS011;19920;52.242;20.940;2023-11-21T03:20:43;26.80;;;14.35;;
33593;SDS011;19920;52.242;20.940;2023-11-21T03:23:11;25.70;;;16.00;;
33593;SDS011;19920;52.242;20.940;2023-11-21T03:25:37;23.00;;;14.73;;
33593;SDS011;19920;52.242;20.940;2023-11-21T03:28:02;22.17;;;13.60;;
33593;SDS011;19920;52.242;20.940;2023-11-21T03:30:28;25.77;;;15.07;;
33593;SDS011;19920;52.242;20.940;2023-11-21T03:32:54;24.98;;;14.32;;
33593;SDS011;19920;52.242;20.940;2023-11-21T03:35:19;26.23;;;14.95;;
33593;SDS011;19920;52.242;20.940;2023-11-21T03:37:46;26.55;;;15.68;;
33593;SDS011;19920;52.242;20.940;2023-11-21T03:40:11;24.23;;;14.45;;
33593;SDS011;19920;52.242;20.940;2023-11-21T03:42:37;26.67;;;14.52;;
33593;SDS011;19920;52.242;20.940;2023-11-21T03:45:04;27.58;;;14.70;;
33593;SDS011;19920;52.242;20.940;2023-11-21T03:47:30;25.88;;;15.15;;
33593;SDS011;19920;52.242;20.940;2023-11-21T03:49:56;25.65;;;15.50;;
33593;SDS011;19920;52.242;20.940;2023-11-21T03:52:21;23.05;;;14.23;;
33593;SDS011;19920;52.242;20.940;2023-11-21T03:54:47;25.13;;;15.23;;
33593;SDS011;19920;52.242;20.940;2023-11-21T03:57:13;25.05;;;14.88;;
33593;SDS011;19920;52.242;20.940;2023-11-21T03:59:41;24.88;;;14.75;;
33593;SDS011;19920;52.242;20.940;2023-11-21T04:02:07;23.13;;;13.80;;
33593;SDS011;19920;52.242;20.940;2023-11-21T04:04:33;23.40;;;14.10;;
33593;SDS011;19920;52.242;20.940;2023-11-21T04:06:59;25.23;;;15.00;;
33593;SDS011;19920;52.242;20.940;2023-11-21T04:09:25;20.63;;;13.30;;
33593;SDS011;19920;52.242;20.940;2023-11-21T04:11:51;22.52;;;13.55;;
33593;SDS011;19920;52.242;20.940;2023-11-21T04:14:17;23.55;;;13.55;;
33593;SDS011;19920;52.242;20.940;2023-11-21T04:16:43;22.58;;;14.25;;
33593;SDS011;19920;52.242;20.940;2023-11-21T04:19:08;18.25;;;11.80;;
33593;SDS011;19920;52.242;20.940;2023-11-21T04:21:35;18.10;;;11.85;;
33593;SDS011;19920;52.242;20.940;2023-11-21T04:24:01;17.75;;;11.18;;
33593;SDS011;19920;52.242;20.940;2023-11-21T04:26:27;19.52;;;11.82;;
33593;SDS011;19920;52.242;20.940;2023-11-21T04:28:52;17.70;;;11.77;;
33593;SDS011;19920;52.242;20.940;2023-11-21T04:31:18;17.73;;;11.32;;
33593;SDS011;19920;52.242;20.940;2023-11-21T04:33:43;17.23;;;11.10;;
33593;SDS011;19920;52.242;20.940;2023-11-21T04:36:09;18.00;;;11.75;;
33593;SDS011;19920;52.242;20.940;2023-11-21T04:38:35;17.90;;;11.15;;
33593;SDS011;19920;52.242;20.940;2023-11-21T04:41:01;17.88;;;11.45;;
33593;SDS011;19920;52.242;20.940;2023-11-21T04:43:27;17.77;;;11.20;;
33593;SDS011;19920;52.242;20.940;2023-11-21T04:45:52;17.73;;;11.32;;
33593;SDS011;19920;52.242;20.940;2023-11-21T04:48:19;17.42;;;11.15;;
33593;SDS011;19920;52.242;20.940;2023-11-21T04:50:45;17.90;;;11.57;;
33593;SDS011;19920;52.242;20.940;2023-11-21T04:53:11;17.05;;;10.40;;
33593;SDS011;19920;52.242;20.940;2023-11-21T04:55:39;18.17;;;11.25;;
33593;SDS011;19920;52.242;20.940;2023-11-21T04:58:05;17.10;;;10.95;;
33593;SDS011;19920;52.242;20.940;2023-11-21T05:00:30;17.10;;;10.70;;
33593;SDS011;19920;52.242;20.940;2023-11-21T05:02:56;15.38;;;10.30;;
33593;SDS011;19920;52.242;20.940;2023-11-21T05:05:22;16.52;;;10.57;;
33593;SDS011;19920;52.242;20.940;2023-11-21T05:07:47;20.15;;;10.70;;
33593;SDS011;19920;52.242;20.940;2023-11-21T05:10:14;17.35;;;9.98;;
33593;SDS011;19920;52.242;20.940;2023-11-21T05:12:40;18.73;;;10.90;;
33593;SDS011;19920;52.242;20.940;2023-11-21T05:15:07;15.98;;;9.43;;
33593;SDS011;19920;52.242;20.940;2023-11-21T05:17:35;16.20;;;9.23;;
33593;SDS011;19920;52.242;20.940;2023-11-21T05:20:01;13.80;;;9.07;;
33593;SDS011;19920;52.242;20.940;2023-11-21T05:22:29;14.30;;;9.52;;
33593;SDS011;19920;52.242;20.940;2023-11-21T05:24:55;17.35;;;9.73;;
33593;SDS011;19920;52.242;20.940;2023-11-21T05:27:20;14.57;;;10.00;;
33593;SDS011;19920;52.242;20.940;2023-11-21T05:29:46;14.88;;;9.35;;
33593;SDS011;19920;52.242;20.940;2023-11-21T05:32:11;15.50;;;9.63;;
33593;SDS011;19920;52.242;20.940;2023-11-21T05:34:37;17.58;;;10.68;;
33593;SDS011;19920;52.242;20.940;2023-11-21T05:37:03;16.10;;;9.68;;
33593;SDS011;19920;52.242;20.940;2023-11-21T05:39:30;16.98;;;10.32;;
33593;SDS011;19920;52.242;20.940;2023-11-21T05:41:56;20.60;;;12.68;;
33593;SDS011;19920;52.242;20.940;2023-11-21T05:44:22;18.10;;;10.15;;
33593;SDS011;19920;52.242;20.940;2023-11-21T05:46:48;15.85;;;9.05;;
33593;SDS011;19920;52.242;20.940;2023-11-21T05:49:15;14.38;;;8.75;;
33593;SDS011;19920;52.242;20.940;2023-11-21T05:51:41;13.82;;;8.85;;
33593;SDS011;19920;52.242;20.940;2023-11-21T05:54:07;18.25;;;9.20;;
33593;SDS011;19920;52.242;20.940;2023-11-21T05:56:33;13.50;;;8.77;;
33593;SDS011;19920;52.242;20.940;2023-11-21T05:58:58;15.63;;;9.07;;
33593;SDS011;19920;52.242;20.940;2023-11-21T06:01:24;13.85;;;8.55;;
33593;SDS011;19920;52.242;20.940;2023-11-21T06:03:53;15.48;;;9.70;;
33593;SDS011;19920;52.242;20.940;2023-11-21T06:06:19;14.90;;;8.68;;
33593;SDS011;19920;52.242;20.940;2023-11-21T06:08:47;14.18;;;8.88;;
33593;SDS011;19920;52.242;20.940;2023-11-21T06:11:15;12.77;;;8.68;;
33593;SDS011;19920;52.242;20.940;2023-11-21T06:13:41;14.50;;;9.05;;
33593;SDS011;19920;52.242;20.940;2023-11-21T06:16:07;15.13;;;8.95;;
33593;SDS011;19920;52.242;20.940;2023-11-21T06:18:33;13.95;;;9.20;;
33593;SDS011;19920;52.242;20.940;2023-11-21T06:21:00;16.25;;;9.88;;
33593;SDS011;19920;52.242;20.940;2023-11-21T06:23:25;15.25;;;9.10;;
33593;SDS011;19920;52.242;20.940;2023-11-21T06:25:51;14.90;;;9.05;;
33593;SDS011;19920;52.242;20.940;2023-11-21T06:28:17;14.60;;;10.30;;
33593;SDS011;19920;52.242;20.940;2023-11-21T06:30:43;17.38;;;9.75;;
33593;SDS011;19920;52.242;20.940;2023-11-21T06:33:14;17.30;;;10.40;;
33593;SDS011;19920;52.242;20.940;2023-11-21T06:35:39;15.13;;;9.73;;
33593;SDS011;19920;52.242;20.940;2023-11-21T06:38:05;14.65;;;9.80;;
33593;SDS011;19920;52.242;20.940;2023-11-21T06:40:30;14.00;;;9.93;;
33593;SDS011;19920;52.242;20.940;2023-11-21T06:42:58;16.63;;;10.18;;
33593;SDS011;19920;52.242;20.940;2023-11-21T06:45:24;14.90;;;9.18;;
33593;SDS011;19920;52.242;20.940;2023-11-21T06:47:49;18.95;;;9.75;;
33593;SDS011;19920;52.242;20.940;2023-11-21T06:50:15;15.68;;;10.30;;
33593;SDS011;19920;52.242;20.940;2023-11-21T06:52:40;18.17;;;10.10;;
33593;SDS011;19920;52.242;20.940;2023-11-21T06:55:06;15.10;;;10.05;;
33593;SDS011;19920;52.242;20.940;2023-11-21T06:57:33;16.02;;;10.00;;
33593;SDS011;19920;52.242;20.940;2023-11-21T06:59:59;18.23;;;10.35;;
33593;SDS011;19920;52.242;20.940;2023-11-21T07:02:24;14.63;;;9.52;;
33593;SDS011;19920;52.242;20.940;2023-11-21T07:04:50;18.02;;;10.25;;
33593;SDS011;19920;52.242;20.940;2023-11-21T07:07:16;19.92;;;10.82;;
33593;SDS011;19920;52.242;20.940;2023-11-21T07:09:41;18.33;;;10.30;;
33593;SDS011;19920;52.242;20.940;2023-11-21T07:12:07;16.55;;;11.25;;
33593;SDS011;19920;52.242;20.940;2023-11-21T07:14:35;16.52;;;10.27;;
33593;SDS011;19920;52.242;20.940;2023-11-21T07:17:02;17.70;;;10.98;;
33593;SDS011;19920;52.242;20.940;2023-11-21T07:19:28;19.17;;;10.93;;
33593;SDS011;19920;52.242;20.940;2023-11-21T07:21:54;18.98;;;11.00;;
33593;SDS011;19920;52.242;20.940;2023-11-21T07:24:20;21.70;;;11.10;;
33593;SDS011;19920;52.242;20.940;2023-11-21T07:26:47;17.52;;;11.07;;
33593;SDS011;19920;52.242;20.940;2023-11-21T07:29:13;19.63;;;10.65;;
33593;SDS011;19920;52.242;20.940;2023-11-21T07:31:38;19.42;;;11.45;;
33593;SDS011;19920;52.242;20.940;2023-11-21T07:34:06;18.48;;;11.27;;
33593;SDS011;19920;52.242;20.940;2023-11-21T07:36:33;20.73;;;11.00;;
33593;SDS011;19920;52.242;20.940;2023-11-21T07:38:58;18.98;;;10.80;;
33593;SDS011;19920;52.242;20.940;2023-11-21T07:41:24;19.77;;;9.95;;
33593;SDS011;19920;52.242;20.940;2023-11-21T07:43:49;20.20;;;10.85;;
33593;SDS011;19920;52.242;20.940;2023-11-21T07:46:15;16.08;;;10.15;;
33593;SDS011;19920;52.242;20.940;2023-11-21T07:48:41;14.48;;;9.90;;
33593;SDS011;19920;52.242;20.940;2023-11-21T07:51:07;17.00;;;10.50;;
33593;SDS011;19920;52.242;20.940;2023-11-21T07:53:33;19.27;;;10.43;;
33593;SDS011;19920;52.242;20.940;2023-11-21T07:56:03;19.30;;;10.88;;
33593;SDS011;19920;52.242;20.940;2023-11-21T07:58:30;16.73;;;9.43;;
33593;SDS011;19920;52.242;20.940;2023-11-21T08:00:58;17.08;;;9.60;;
33593;SDS011;19920;52.242;20.940;2023-11-21T08:03:24;16.50;;;9.65;;
33593;SDS011;19920;52.242;20.940;2023-11-21T08:05:51;17.88;;;10.15;;
33593;SDS011;19920;52.242;20.940;2023-11-21T08:08:17;16.60;;;10.18;;
33593;SDS011;19920;52.242;20.940;2023-11-21T08:10:43;17.95;;;9.90;;
33593;SDS011;19920;52.242;20.940;2023-11-21T08:13:13;18.35;;;10.95;;
33593;SDS011;19920;52.242;20.940;2023-11-21T08:15:41;18.13;;;10.75;;
33593;SDS011;19920;52.242;20.940;2023-11-21T08:18:10;16.20;;;10.90;;
33593;SDS011;19920;52.242;20.940;2023-11-21T08:20:35;18.38;;;10.45;;
33593;SDS011;19920;52.242;20.940;2023-11-21T08:23:03;19.52;;;10.77;;
33593;SDS011;19920;52.242;20.940;2023-11-21T08:25:30;19.60;;;11.10;;
33593;SDS011;19920;52.242;20.940;2023-11-21T08:27:56;18.38;;;10.48;;
33593;SDS011;19920;52.242;20.940;2023-11-21T08:30:22;21.25;;;10.73;;
33593;SDS011;19920;52.242;20.940;2023-11-21T08:32:49;21.45;;;11.35;;
33593;SDS011;19920;52.242;20.940;2023-11-21T08:35:17;18.25;;;10.27;;
33593;SDS011;19920;52.242;20.940;2023-11-21T08:37:42;21.17;;;10.75;;
33593;SDS011;19920;52.242;20.940;2023-11-21T08:40:08;18.75;;;11.10;;
33593;SDS011;19920;52.242;20.940;2023-11-21T08:42:37;19.38;;;11.45;;
33593;SDS011;19920;52.242;20.940;2023-11-21T08:45:03;18.13;;;10.38;;
33593;SDS011;19920;52.242;20.940;2023-11-21T08:47:30;17.77;;;11.48;;
33593;SDS011;19920;52.242;20.940;2023-11-21T08:49:56;21.88;;;10.75;;
33593;SDS011;19920;52.242;20.940;2023-11-21T08:52:26;19.35;;;11.82;;
33593;SDS011;19920;52.242;20.940;2023-11-21T08:54:52;17.67;;;11.20;;
33593;SDS011;19920;52.242;20.940;2023-11-21T08:57:21;18.45;;;11.45;;
33593;SDS011;19920;52.242;20.940;2023-11-21T08:59:47;19.25;;;12.05;;
33593;SDS011;19920;52.242;20.940;2023-11-21T09:02:13;19.38;;;10.95;;
33593;SDS011;19920;52.242;20.940;2023-11-21T09:04:38;22.23;;;12.45;;
33593;SDS011;19920;52.242;20.940;2023-11-21T09:07:04;20.35;;;11.45;;
33593;SDS011;19920;52.242;20.940;2023-11-21T09:09:30;19.15;;;11.82;;
33593;SDS011;19920;52.242;20.940;2023-11-21T09:11:56;19.55;;;12.48;;
33593;SDS011;19920;52.242;20.940;2023-11-21T09:14:22;20.58;;;11.70;;
33593;SDS011;19920;52.242;20.940;2023-11-21T09:16:47;18.88;;;12.32;;
33593;SDS011;19920;52.242;20.940;2023-11-21T09:19:13;20.80;;;12.23;;
33593;SDS011;19920;52.242;20.940;2023-11-21T09:21:40;19.67;;;12.10;;
33593;SDS011;19920;52.242;20.940;2023-11-21T09:24:06;20.05;;;12.43;;
33593;SDS011;19920;52.242;20.940;2023-11-21T09:26:34;19.92;;;11.43;;
33593;SDS011;19920;52.242;20.940;2023-11-21T09:28:59;19.38;;;11.48;;
33593;SDS011;19920;52.242;20.940;2023-11-21T09:31:25;17.55;;;11.20;;
33593;SDS011;19920;52.242;20.940;2023-11-21T09:33:52;19.67;;;11.50;;
33593;SDS011;19920;52.242;20.940;2023-11-21T09:36:17;18.50;;;11.25;;
33593;SDS011;19920;52.242;20.940;2023-11-21T09:38:43;17.80;;;11.48;;
33593;SDS011;19920;52.242;20.940;2023-11-21T09:41:11;20.50;;;11.68;;
33593;SDS011;19920;52.242;20.940;2023-11-21T09:43:49;17.15;;;10.98;;
33593;SDS011;19920;52.242;20.940;2023-11-21T09:46:21;17.83;;;11.38;;
33593;SDS011;19920;52.242;20.940;2023-11-21T09:48:50;16.60;;;10.63;;
33593;SDS011;19920;52.242;20.940;2023-11-21T09:51:21;19.35;;;10.75;;
33593;SDS011;19920;52.242;20.940;2023-11-21T09:53:52;20.08;;;11.70;;
33593;SDS011;19920;52.242;20.940;2023-11-21T09:56:18;24.52;;;12.13;;
33593;SDS011;19920;52.242;20.940;2023-11-21T09:58:50;19.02;;;11.13;;
33593;SDS011;19920;52.242;20.940;2023-11-21T10:01:17;19.73;;;11.05;;
33593;SDS011;19920;52.242;20.940;2023-11-21T10:03:44;18.77;;;10.98;;
33593;SDS011;19920;52.242;20.940;2023-11-21T10:06:10;18.65;;;11.20;;
33593;SDS011;19920;52.242;20.940;2023-11-21T10:08:39;17.50;;;10.95;;
33593;SDS011;19920;52.242;20.940;2023-11-21T10:11:06;16.50;;;10.57;;
33593;SDS011;19920;52.242;20.940;2023-11-21T10:16:02;17.65;;;10.57;;
33593;SDS011;19920;52.242;20.940;2023-11-21T10:18:30;22.85;;;11.02;;
33593;SDS011;19920;52.242;20.940;2023-11-21T10:20:59;23.08;;;11.68;;
33593;SDS011;19920;52.242;20.940;2023-11-21T10:23:25;17.77;;;10.95;;
33593;SDS011;19920;52.242;20.940;2023-11-21T10:25:52;19.70;;;11.02;;
33593;SDS011;19920;52.242;20.940;2023-11-21T10:28:18;19.00;;;11.38;;
33593;SDS011;19920;52.242;20.940;2023-11-21T10:30:44;17.27;;;11.23;;
33593;SDS011;19920;52.242;20.940;2023-11-21T10:33:09;18.83;;;11.05;;
33593;SDS011;19920;52.242;20.940;2023-11-21T10:35:45;17.73;;;10.77;;
33593;SDS011;19920;52.242;20.940;2023-11-21T10:38:15;21.42;;;12.38;;
33593;SDS011;19920;52.242;20.940;2023-11-21T10:40:42;18.85;;;11.48;;
33593;SDS011;19920;52.242;20.940;2023-11-21T10:43:09;21.92;;;11.73;;
33593;SDS011;19920;52.242;20.940;2023-11-21T10:45:38;17.83;;;11.40;;
33593;SDS011;19920;52.242;20.940;2023-11-21T10:48:05;21.50;;;11.43;;
33593;SDS011;19920;52.242;20.940;2023-11-21T10:50:33;19.50;;;12.02;;
33593;SDS011;19920;52.242;20.940;2023-11-21T10:53:04;18.90;;;12.23;;
33593;SDS011;19920;52.242;20.940;2023-11-21T10:55:30;20.13;;;12.38;;
33593;SDS011;19920;52.242;20.940;2023-11-21T10:58:00;20.25;;;13.02;;
33593;SDS011;19920;52.242;20.940;2023-11-21T11:00:28;18.73;;;11.55;;
33593;SDS011;19920;52.242;20.940;2023-11-21T11:02:54;20.77;;;11.23;;
33593;SDS011;19920;52.242;20.940;2023-11-21T11:05:21;18.48;;;11.63;;
33593;SDS011;19920;52.242;20.940;2023-11-21T11:07:50;19.92;;;11.95;;
33593;SDS011;19920;52.242;20.940;2023-11-21T11:10:20;19.83;;;13.32;;
33593;SDS011;19920;52.242;20.940;2023-11-21T11:12:48;20.50;;;11.80;;
33593;SDS011;19920;52.242;20.940;2023-11-21T11:15:15;18.35;;;12.30;;
33593;SDS011;19920;52.242;20.940;2023-11-21T11:17:41;21.67;;;12.27;;
33593;SDS011;19920;52.242;20.940;2023-11-21T11:20:09;20.30;;;12.30;;
33593;SDS011;19920;52.242;20.940;2023-11-21T11:22:42;20.23;;;12.40;;
33593;SDS011;19920;52.242;20.940;2023-11-21T11:28:04;17.30;;;11.98;;
33593;SDS011;19920;52.242;20.940;2023-11-21T11:36:17;21.95;;;12.48;;
33593;SDS011;19920;52.242;20.940;2023-11-21T11:39:28;20.67;;;12.80;;
33593;SDS011;19920;52.242;20.940;2023-11-21T11:41:56;18.67;;;11.57;;
33593;SDS011;19920;52.242;20.940;2023-11-21T11:44:47;20.40;;;12.38;;
33593;SDS011;19920;52.242;20.940;2023-11-21T11:47:16;19.73;;;12.05;;
33593;SDS011;19920;52.242;20.940;2023-11-21T11:55:09;19.90;;;12.73;;
33593;SDS011;19920;52.242;20.940;2023-11-21T11:57:36;19.08;;;12.13;;
33593;SDS011;19920;52.242;20.940;2023-11-21T12:02:51;20.67;;;12.75;;
33593;SDS011;19920;52.242;20.940;2023-11-21T12:05:19;22.88;;;13.77;;
33593;SDS011;19920;52.242;20.940;2023-11-21T12:07:50;21.02;;;12.02;;
33593;SDS011;19920;52.242;20.940;2023-11-21T12:10:20;18.08;;;11.20;;
33593;SDS011;19920;52.242;20.940;2023-11-21T12:12:49;19.63;;;11.50;;
33593;SDS011;19920;52.242;20.940;2023-11-21T12:15:19;18.90;;;11.30;;
33593;SDS011;19920;52.242;20.940;2023-11-21T12:17:46;18.85;;;11.45;;
33593;SDS011;19920;52.242;20.940;2023-11-21T12:20:14;19.85;;;11.98;;
33593;SDS011;19920;52.242;20.940;2023-11-21T12:22:43;22.85;;;12.82;;
33593;SDS011;19920;52.242;20.940;2023-11-21T12:25:09;19.40;;;11.07;;
33593;SDS011;19920;52.242;20.940;2023-11-21T12:27:35;22.33;;;11.85;;
33593;SDS011;19920;52.242;20.940;2023-11-21T12:30:00;20.48;;;12.60;;
33593;SDS011;19920;52.242;20.940;2023-11-21T12:32:26;23.23;;;14.25;;
33593;SDS011;19920;52.242;20.940;2023-11-21T12:34:51;23.35;;;12.98;;
33593;SDS011;19920;52.242;20.940;2023-11-21T12:37:17;21.63;;;11.93;;
33593;SDS011;19920;52.242;20.940;2023-11-21T12:39:43;19.73;;;12.15;;
33593;SDS011;19920;52.242;20.940;2023-11-21T12:42:09;20.20;;;13.40;;
33593;SDS011;19920;52.242;20.940;2023-11-21T12:44:35;20.35;;;12.43;;
33593;SDS011;19920;52.242;20.940;2023-11-21T12:47:02;19.75;;;12.50;;
33593;SDS011;19920;52.242;20.940;2023-11-21T12:49:28;19.23;;;12.35;;
33593;SDS011;19920;52.242;20.940;2023-11-21T12:51:54;20.58;;;13.30;;
33593;SDS011;19920;52.242;20.940;2023-11-21T12:54:19;22.42;;;12.98;;
33593;SDS011;19920;52.242;20.940;2023-11-21T12:56:45;21.67;;;13.00;;
33593;SDS011;19920;52.242;20.940;2023-11-21T12:59:14;20.90;;;12.55;;
33593;SDS011;19920;52.242;20.940;2023-11-21T13:01:42;21.10;;;12.63;;
33593;SDS011;19920;52.242;20.940;2023-11-21T13:04:07;20.23;;;13.40;;
33593;SDS011;19920;52.242;20.940;2023-11-21T13:06:35;19.98;;;12.73;;
33593;SDS011;19920;52.242;20.940;2023-11-21T13:09:05;22.23;;;12.90;;
33593;SDS011;19920;52.242;20.940;2023-11-21T13:11:35;23.48;;;13.63;;
33593;SDS011;19920;52.242;20.940;2023-11-21T13:14:02;20.98;;;12.38;;
33593;SDS011;19920;52.242;20.940;2023-11-21T13:16:28;18.42;;;12.07;;
33593;SDS011;19920;52.242;20.940;2023-11-21T13:18:55;19.58;;;12.65;;
33593;SDS011;19920;52.242;20.940;2023-11-21T13:21:21;21.42;;;12.57;;
33593;SDS011;19920;52.242;20.940;2023-11-21T13:23:47;22.85;;;13.05;;
33593;SDS011;19920;52.242;20.940;2023-11-21T13:26:15;20.83;;;12.75;;
33593;SDS011;19920;52.242;20.940;2023-11-21T13:28:41;21.17;;;13.07;;
33593;SDS011;19920;52.242;20.940;2023-11-21T13:33:56;18.20;;;11.20;;
33593;SDS011;19920;52.242;20.940;2023-11-21T13:36:24;20.00;;;12.70;;
33593;SDS011;19920;52.242;20.940;2023-11-21T13:38:50;20.77;;;12.68;;
33593;SDS011;19920;52.242;20.940;2023-11-21T13:41:19;20.45;;;12.82;;
33593;SDS011;19920;52.242;20.940;2023-11-21T13:43:47;21.15;;;13.13;;
33593;SDS011;19920;52.242;20.940;2023-11-21T13:46:22;19.75;;;12.13;;
33593;SDS011;19920;52.242;20.940;2023-11-21T13:48:48;19.33;;;12.48;;
33593;SDS011;19920;52.242;20.940;2023-11-21T13:51:21;21.48;;;12.73;;
33593;SDS011;19920;52.242;20.940;2023-11-21T13:53:55;23.05;;;12.95;;
33593;SDS011;19920;52.242;20.940;2023-11-21T13:56:21;22.40;;;11.35;;
33593;SDS011;19920;52.242;20.940;2023-11-21T13:58:53;19.58;;;12.75;;
33593;SDS011;19920;52.242;20.940;2023-11-21T14:01:23;22.48;;;14.43;;
33593;SDS011;19920;52.242;20.940;2023-11-21T14:04:09;20.98;;;12.95;;
33593;SDS011;19920;52.242;20.940;2023-11-21T14:06:42;18.05;;;11.73;;
33593;SDS011;19920;52.242;20.940;2023-11-21T14:09:20;18.13;;;11.93;;
33593;SDS011;19920;52.242;20.940;2023-11-21T14:11:55;20.63;;;12.23;;
33593;SDS011;19920;52.242;20.940;2023-11-21T14:14:22;19.90;;;12.82;;
33593;SDS011;19920;52.242;20.940;2023-11-21T14:16:50;24.58;;;13.48;;
33593;SDS011;19920;52.242;20.940;2023-11-21T14:19:16;23.30;;;14.13;;
33593;SDS011;19920;52.242;20.940;2023-11-21T14:21:45;25.13;;;13.77;;
33593;SDS011;19920;52.242;20.940;2023-11-21T14:24:12;22.42;;;13.88;;
33593;SDS011;19920;52.242;20.940;2023-11-21T14:26:41;23.02;;;14.00;;
33593;SDS011;19920;52.242;20.940;2023-11-21T14:29:08;23.27;;;14.50;;
33593;SDS011;19920;52.242;20.940;2023-11-21T14:31:34;20.98;;;13.38;;
33593;SDS011;19920;52.242;20.940;2023-11-21T14:34:00;24.10;;;14.68;;